Time;durP1;ratioP1;P1;durP2;ratioP2;P2;SDS_P1;SDS_P2;PMS_P1;PMS_P2;Temp;Humidity;BMP_temperature;BMP_pressure;BME280_temperature;BME280_humidity;BME280_pressure;Samples;Min_cycle;Max_cycle;Signal;HPM_P1;HPM_P2
2022/03/06 19:05:24;;;;;;;0.57;0.55;;;4.10;61.50;;;;;;5095000;27;20469;-83
2022/03/06 19:07:50;;;;;;;0.47;0.47;;;3.90;61.40;;;;;;5065793;28;20029;-77
2022/03/06 19:10:16;;;;;;;0.30;0.30;;;4.00;61.50;;;;;;4994270;23;20057;-75
2022/03/06 19:12:44;;;;;;;0.10;0.10;;;3.90;61.10;;;;;;4962327;28;20084;-78
2022/03/06 19:15:10;;;;;;;0.20;0.20;;;4.40;61.30;;;;;;4964315;28;20225;-71
2022/03/06 19:17:38;;;;;;;0.10;0.10;;;4.00;60.20;;;;;;4962599;28;20238;-70
2022/03/06 19:20:05;;;;;;;0.20;0.20;;;3.90;60.00;;;;;;4983996;28;20065;-76
2022/03/06 19:22:31;;;;;;;0.20;0.20;;;4.00;60.30;;;;;;4970483;28;20023;-75
2022/03/06 19:24:56;;;;;;;0.10;0.10;;;4.10;60.20;;;;;;4964650;28;20096;-74
2022/03/06 19:27:22;;;;;;;0.40;0.40;;;4.00;60.00;;;;;;4963590;28;20027;-79
2022/03/06 19:29:48;;;;;;;0.20;0.20;;;4.00;60.00;;;;;;4963600;28;20023;-76
2022/03/06 19:32:14;;;;;;;0.10;0.10;;;4.20;60.40;;;;;;4962998;28;20507;-75
2022/03/06 19:34:39;;;;;;;0.32;0.32;;;4.00;60.40;;;;;;4963076;28;20031;-77
2022/03/06 19:37:06;;;;;;;0.82;0.82;;;4.00;59.90;;;;;;4984341;28;20026;-74
2022/03/06 19:39:32;;;;;;;0.10;0.10;;;4.00;60.00;;;;;;4954128;28;20031;-75
2022/03/06 19:41:59;;;;;;;2.63;2.50;;;4.10;59.70;;;;;;4963027;28;20043;-74
2022/03/06 19:44:25;;;;;;;0.90;0.90;;;4.20;60.00;;;;;;4955380;28;20451;-74
2022/03/06 19:46:51;;;;;;;0.30;0.30;;;4.00;60.00;;;;;;4961896;28;20250;-75
2022/03/06 19:49:17;;;;;;;1.02;1.00;;;4.10;60.40;;;;;;4962562;28;20468;-75
2022/03/06 19:51:45;;;;;;;0.10;0.10;;;4.00;60.10;;;;;;4961134;28;20412;-73
2022/03/06 19:54:16;;;;;;;0.47;0.47;;;4.00;60.40;;;;;;4957330;28;20565;-72
2022/03/06 19:56:46;;;;;;;0.10;0.10;;;4.40;60.40;;;;;;4963641;28;20061;-74
2022/03/06 19:59:12;;;;;;;0.10;0.10;;;4.00;60.40;;;;;;4970901;28;20035;-71
2022/03/06 20:01:40;;;;;;;1.60;1.50;;;4.20;61.10;;;;;;4969607;28;20034;-71
2022/03/06 20:04:06;;;;;;;0.10;0.10;;;4.00;60.00;;;;;;4968564;28;20038;-71
2022/03/06 20:06:32;;;;;;;0.10;0.10;;;4.00;60.20;;;;;;4968862;28;20130;-71
2022/03/06 20:08:58;;;;;;;0.10;0.10;;;4.00;60.70;;;;;;4972488;28;20035;-72
2022/03/06 20:11:24;;;;;;;5.57;2.30;;;4.00;60.60;;;;;;4961904;28;20077;-70
2022/03/06 20:13:50;;;;;;;2.10;1.95;;;4.00;60.80;;;;;;4963846;28;20065;-72
2022/03/06 20:16:22;;;;;;;0.40;0.40;;;4.00;60.10;;;;;;4959733;28;20039;-71
2022/03/06 20:18:48;;;;;;;0.20;0.20;;;4.00;60.40;;;;;;4949229;28;20104;-74
2022/03/06 20:21:16;;;;;;;0.10;0.10;;;4.00;60.40;;;;;;4953773;28;20062;-71
2022/03/06 20:23:47;;;;;;;0.40;0.40;;;4.00;60.60;;;;;;4956660;28;20035;-72
2022/03/06 20:26:14;;;;;;;0.10;0.10;;;4.00;60.00;;;;;;4955459;28;20058;-72
2022/03/06 20:28:40;;;;;;;0.52;0.52;;;4.10;60.00;;;;;;4958275;28;20110;-73
2022/03/06 20:31:06;;;;;;;0.20;0.20;;;3.90;59.30;;;;;;4953021;28;20086;-72
2022/03/06 20:33:32;;;;;;;0.98;0.77;;;4.10;59.60;;;;;;4955211;28;20035;-73
2022/03/06 20:35:58;;;;;;;0.10;0.10;;;3.90;59.30;;;;;;4956653;28;20080;-71
2022/03/06 20:38:24;;;;;;;0.20;0.20;;;4.00;59.70;;;;;;4954954;28;20039;-73
2022/03/06 20:40:50;;;;;;;0.10;0.10;;;3.90;59.70;;;;;;4960044;28;20015;-72
2022/03/06 20:43:16;;;;;;;0.10;0.10;;;3.90;59.70;;;;;;4951713;28;20082;-72
2022/03/06 20:45:42;;;;;;;0.20;0.20;;;3.90;59.80;;;;;;4951869;28;20019;-71
2022/03/06 20:48:08;;;;;;;0.77;0.77;;;3.90;59.90;;;;;;4950396;28;20035;-71
2022/03/06 20:50:34;;;;;;;0.30;0.30;;;3.90;59.80;;;;;;4944577;28;20035;-72
2022/03/06 20:52:59;;;;;;;1.10;1.10;;;3.90;60.40;;;;;;4946410;29;20482;-71
2022/03/06 20:55:25;;;;;;;2.10;1.20;;;3.90;60.00;;;;;;4947680;28;20034;-74
2022/03/06 20:57:52;;;;;;;0.22;0.22;;;3.80;59.80;;;;;;4943050;28;20103;-70
2022/03/06 21:00:19;;;;;;;0.10;0.10;;;3.80;60.20;;;;;;4945933;28;20023;-70
2022/03/06 21:02:45;;;;;;;0.10;0.10;;;3.90;60.00;;;;;;4965671;28;20020;-71
2022/03/06 21:05:11;;;;;;;0.10;0.10;;;3.90;60.00;;;;;;4947958;28;20051;-70
2022/03/06 21:07:38;;;;;;;1.75;1.23;;;3.80;60.10;;;;;;4941758;29;20070;-73
2022/03/06 21:10:05;;;;;;;2.25;2.00;;;3.80;60.00;;;;;;4947070;29;20034;-70
2022/03/06 21:12:30;;;;;;;0.13;0.13;;;3.80;60.00;;;;;;4947147;28;20028;-70
2022/03/06 21:14:56;;;;;;;0.45;0.45;;;3.80;60.10;;;;;;4942005;28;20023;-71
2022/03/06 21:17:21;;;;;;;0.20;0.20;;;3.80;60.40;;;;;;4946813;28;20112;-72
2022/03/06 21:19:47;;;;;;;0.20;0.20;;;3.80;60.10;;;;;;4947405;28;20487;-72
2022/03/06 21:22:13;;;;;;;0.10;0.10;;;3.80;60.10;;;;;;4946672;28;20038;-71
2022/03/06 21:24:42;;;;;;;3.03;1.52;;;3.70;60.20;;;;;;4940608;29;20035;-71
2022/03/06 21:27:07;;;;;;;0.13;0.13;;;3.70;60.90;;;;;;4944836;28;20036;-73
2022/03/06 21:29:33;;;;;;;0.57;0.57;;;3.70;61.00;;;;;;4946861;28;20069;-71
2022/03/06 21:31:59;;;;;;;7.10;4.28;;;3.70;61.80;;;;;;4946709;29;20019;-71
2022/03/06 21:34:28;;;;;;;0.55;0.55;;;3.80;61.20;;;;;;4947452;28;20035;-71
2022/03/06 21:36:54;;;;;;;0.35;0.35;;;3.80;60.50;;;;;;4946025;28;20073;-72
2022/03/06 21:39:20;;;;;;;0.45;0.45;;;3.80;60.60;;;;;;4947352;28;20404;-71
2022/03/06 21:41:46;;;;;;;0.10;0.10;;;3.80;60.60;;;;;;4946609;28;20694;-72
2022/03/06 21:44:11;;;;;;;0.10;0.10;;;3.70;60.20;;;;;;4944700;29;20039;-72
2022/03/06 21:46:37;;;;;;;4.43;1.05;;;3.70;60.20;;;;;;4946245;28;20019;-70
2022/03/06 21:49:02;;;;;;;0.17;0.17;;;3.60;60.60;;;;;;4947652;29;20067;-72
2022/03/06 21:51:28;;;;;;;0.20;0.20;;;3.60;60.80;;;;;;4946056;28;20038;-71
2022/03/06 21:53:53;;;;;;;0.10;0.10;;;3.60;61.10;;;;;;4946732;29;20027;-72
2022/03/06 21:56:19;;;;;;;0.35;0.35;;;3.70;60.60;;;;;;4942348;29;20043;-71
2022/03/06 21:58:45;;;;;;;0.30;0.30;;;3.60;60.20;;;;;;4946544;28;20548;-75
2022/03/06 22:01:11;;;;;;;0.10;0.10;;;3.50;60.60;;;;;;4945770;28;20082;-71
2022/03/06 22:03:37;;;;;;;0.10;0.10;;;3.60;60.60;;;;;;4945721;29;20039;-70
2022/03/06 22:06:03;;;;;;;0.93;0.93;;;3.60;60.30;;;;;;4945198;28;20081;-71
2022/03/06 22:08:29;;;;;;;0.10;0.10;;;3.60;60.40;;;;;;4946925;28;20015;-74
2022/03/06 22:10:57;;;;;;;0.10;0.10;;;3.60;60.30;;;;;;4962749;28;20425;-72
2022/03/06 22:13:27;;;;;;;0.17;0.17;;;3.60;60.40;;;;;;4946341;28;20063;-73
2022/03/06 22:15:54;;;;;;;0.10;0.10;;;3.50;60.30;;;;;;4945671;28;20298;-70
2022/03/06 22:18:19;;;;;;;0.10;0.10;;;3.60;61.10;;;;;;4947145;28;20070;-74
2022/03/06 22:20:45;;;;;;;0.28;0.28;;;3.50;60.70;;;;;;4944418;28;20768;-70
2022/03/06 22:23:11;;;;;;;0.22;0.22;;;3.50;60.60;;;;;;4946427;28;20039;-71
2022/03/06 22:25:37;;;;;;;0.10;0.10;;;3.60;60.70;;;;;;4946053;28;20035;-72
2022/03/06 22:28:03;;;;;;;0.20;0.20;;;3.60;60.60;;;;;;4946755;28;20093;-70
2022/03/06 22:30:30;;;;;;;1.38;1.27;;;3.40;60.50;;;;;;4946356;28;20032;-73
2022/03/06 22:32:57;;;;;;;0.10;0.10;;;3.60;60.70;;;;;;4946011;28;20374;-71
2022/03/06 22:35:23;;;;;;;0.10;0.10;;;3.60;60.50;;;;;;4945674;28;20100;-73
2022/03/06 22:37:49;;;;;;;2.40;1.55;;;3.60;60.50;;;;;;4944001;29;20391;-71
2022/03/06 22:40:14;;;;;;;0.13;0.13;;;3.50;60.90;;;;;;4944152;28;20039;-71
2022/03/06 22:42:40;;;;;;;0.55;0.55;;;3.60;60.70;;;;;;4945980;28;20031;-71
2022/03/06 22:45:06;;;;;;;0.47;0.47;;;3.60;60.50;;;;;;4945492;29;20496;-70
2022/03/06 22:47:32;;;;;;;0.10;0.10;;;3.40;61.00;;;;;;4945305;28;20023;-70
2022/03/06 22:49:58;;;;;;;1.15;0.90;;;3.40;60.90;;;;;;4946293;29;20542;-70
2022/03/06 22:52:23;;;;;;;0.10;0.10;;;3.40;61.30;;;;;;4945707;29;20035;-70
2022/03/06 22:54:49;;;;;;;0.10;0.10;;;3.40;61.10;;;;;;4940260;28;20486;-71
2022/03/06 22:57:15;;;;;;;1.20;1.00;;;3.40;61.40;;;;;;4943445;28;20059;-70
2022/03/06 22:59:41;;;;;;;0.10;0.10;;;3.40;61.40;;;;;;4945320;28;20110;-71
2022/03/06 23:02:06;;;;;;;0.10;0.10;;;3.40;61.60;;;;;;4945683;29;20174;-69
2022/03/06 23:07:21;;;;;;;0.10;0.10;;;3.50;61.60;;;;;;4946507;29;20086;-70
2022/03/06 23:09:51;;;;;;;0.30;0.30;;;3.30;61.70;;;;;;4949636;28;20118;-68
2022/03/06 23:12:19;;;;;;;0.90;0.90;;;3.40;62.10;;;;;;4996813;28;20779;-69
2022/03/06 23:14:47;;;;;;;0.10;0.10;;;3.40;62.20;;;;;;4944813;28;20031;-69
2022/03/06 23:17:14;;;;;;;0.10;0.10;;;3.40;62.30;;;;;;4945844;28;20035;-68
2022/03/06 23:19:39;;;;;;;1.02;1.02;;;3.40;62.30;;;;;;4946098;29;20037;-72
2022/03/06 23:22:06;;;;;;;0.20;0.20;;;3.40;62.40;;;;;;4943911;29;20034;-68
2022/03/06 23:24:32;;;;;;;0.25;0.25;;;3.30;62.30;;;;;;4963142;28;20039;-70
2022/03/06 23:26:58;;;;;;;0.30;0.30;;;3.30;62.10;;;;;;4944407;28;20472;-70
2022/03/06 23:29:23;;;;;;;0.10;0.10;;;3.50;62.40;;;;;;4944334;29;20065;-69
2022/03/06 23:31:49;;;;;;;0.20;0.20;;;3.20;62.50;;;;;;4943291;29;20400;-70
2022/03/06 23:34:15;;;;;;;3.97;3.63;;;3.20;62.60;;;;;;4945559;28;20065;-70
2022/03/06 23:36:41;;;;;;;0.20;0.20;;;3.20;62.50;;;;;;4944421;28;20032;-68
2022/03/06 23:39:08;;;;;;;0.10;0.10;;;3.10;62.70;;;;;;4945879;29;20042;-69
2022/03/06 23:41:35;;;;;;;0.20;0.20;;;3.10;62.80;;;;;;4943843;28;20531;-68
2022/03/06 23:44:01;;;;;;;0.10;0.10;;;3.10;62.70;;;;;;4944841;28;20063;-69
2022/03/06 23:46:27;;;;;;;0.17;0.17;;;3.20;63.10;;;;;;4942659;28;20027;-69
2022/03/06 23:48:53;;;;;;;0.10;0.10;;;3.10;63.50;;;;;;4944414;28;20027;-69
2022/03/06 23:51:18;;;;;;;0.10;0.10;;;3.10;63.70;;;;;;4947688;28;20042;-69
2022/03/06 23:53:44;;;;;;;2.88;2.47;;;3.00;63.60;;;;;;4948070;28;20487;-69
2022/03/06 23:56:10;;;;;;;0.43;0.43;;;3.10;64.10;;;;;;4946788;28;20035;-70
2022/03/06 23:58:35;;;;;;;0.13;0.13;;;3.10;64.20;;;;;;4947667;28;20031;-69
